Yorkville, Illinois
Current Conditions -  °F | °C
As of 7:06 AM on Saturday 25 Oct 2014 (Local Time) from KARR Reporting Station
Haze Haze  
Wind Chill: 51°   Ceiling: Unl
Heat Index: 51°   Visibility: 0.75mi
Dew Point: 49°   Wind: 5mph
Humidity: 92%   Direction: 260°W
Pressure: 29.93"   Gusts: NA
Location:  41.64°N, 88.45°W
Report Text: KARR 251206Z 26004KT 3/4SM BR CLR 11/09 A2993 RMK AO2 T01060094
Loading
Personal Weather Stations






























Interactive Weather Map
Tropical Storm Tracking
New forecast layout! Learn more

10-Day Weather Forecast

Advertisements
Track Severe Weather on mobile